Terminal Aerodrome Forecast
Issued by NWS

Home | Current Version | Previous Version | Graphics & Text | Print | Product List | Glossary On
Versions: 1 2 3 4 5 6 7 8 9 10 11 12 13 14 15 16 17 18
327
FTUS43 KBIS 062339
TAFJMS
TAF
KJMS 062339Z 0700/0724 27020G28KT P6SM VCSH SCT050 BKN070
     FM070200 27025G35KT P6SM BKN080
     FM071400 32032G48KT P6SM VCSH OVC040
     FM071600 32032G48KT 3SM -SHSN BLSN OVC030=

USA.gov is the U.S. government's official web portal to all federal, state and local government web resources and services.